createdAt,value
2022-12-25T00:01:24.618Z,0.80
2022-12-25T00:03:53.644Z,1.80
2022-12-25T00:06:22.493Z,2.00
2022-12-25T00:08:51.135Z,2.70
2022-12-25T00:11:20.991Z,1.10
2022-12-25T00:13:49.782Z,0.90
2022-12-25T00:16:26.360Z,2.70
2022-12-25T00:18:59.254Z,3.60
2022-12-25T00:21:28.719Z,2.20
2022-12-25T00:23:58.872Z,3.30
2022-12-25T00:26:28.052Z,3.60
2022-12-25T00:28:58.440Z,2.10
2022-12-25T00:31:27.821Z,0.70
2022-12-25T00:33:56.529Z,0.50
2022-12-25T00:36:25.195Z,1.50
2022-12-25T00:38:53.710Z,2.70
2022-12-25T00:41:42.743Z,4.00
2022-12-25T00:44:13.944Z,0.60
2022-12-25T00:46:43.112Z,4.30
2022-12-25T00:49:12.592Z,0.80
2022-12-25T00:51:41.405Z,2.50
2022-12-25T00:54:10.032Z,0.50
2022-12-25T00:56:38.600Z,0.80
2022-12-25T00:59:07.143Z,1.40
2022-12-25T01:01:36.518Z,0.70
2022-12-25T01:04:07.860Z,1.00
2022-12-25T01:06:37.459Z,0.80
2022-12-25T01:09:25.413Z,0.90
2022-12-25T01:11:54.231Z,0.30
2022-12-25T01:14:23.151Z,2.10
2022-12-25T01:16:51.864Z,1.40
2022-12-25T01:19:20.593Z,1.10
2022-12-25T01:21:49.110Z,2.50
2022-12-25T01:24:17.604Z,2.60
2022-12-25T01:26:47.081Z,0.50
2022-12-25T01:29:15.654Z,2.30
2022-12-25T01:31:45.063Z,2.10
2022-12-25T01:34:20.524Z,2.80
2022-12-25T01:36:49.163Z,3.50
2022-12-25T01:39:19.369Z,2.60
2022-12-25T01:41:48.647Z,3.80
2022-12-25T01:44:20.334Z,1.20
2022-12-25T01:46:49.249Z,0.70
2022-12-25T01:49:24.268Z,1.20
2022-12-25T01:52:02.195Z,1.40
2022-12-25T01:54:35.222Z,2.20
2022-12-25T01:57:08.973Z,1.80
2022-12-25T01:59:37.805Z,0.80
2022-12-25T02:02:06.419Z,0.30
2022-12-25T02:04:42.739Z,1.60
2022-12-25T02:07:16.617Z,0.90
2022-12-25T02:09:47.747Z,3.40
2022-12-25T02:12:34.517Z,4.00
2022-12-25T02:15:10.850Z,1.10
2022-12-25T02:17:48.818Z,6.90
2022-12-25T02:20:36.030Z,1.40
2022-12-25T02:23:42.374Z,3.30
2022-12-25T02:26:49.937Z,2.60
2022-12-25T02:29:29.980Z,0.80
2022-12-25T02:32:28.872Z,1.50
2022-12-25T02:35:19.200Z,1.10
2022-12-25T02:38:01.951Z,3.20
2022-12-25T02:40:57.516Z,0.90
2022-12-25T02:44:02.578Z,1.20
2022-12-25T02:46:50.906Z,3.70
2022-12-25T02:49:42.334Z,1.00
2022-12-25T02:52:34.940Z,2.70
2022-12-25T02:55:32.092Z,1.30
2022-12-25T02:58:26.002Z,2.10
2022-12-25T03:01:28.063Z,2.60
2022-12-25T03:04:20.083Z,0.60
2022-12-25T03:07:11.116Z,2.00
2022-12-25T03:10:12.796Z,1.30
2022-12-25T03:13:04.809Z,1.50
2022-12-25T03:15:52.613Z,2.70
2022-12-25T03:18:24.591Z,0.70
2022-12-25T03:21:13.274Z,2.70
2022-12-25T03:24:10.391Z,1.60
2022-12-25T03:26:57.638Z,127.90
2022-12-25T03:29:51.611Z,132.50
2022-12-25T03:32:40.202Z,138.60
2022-12-25T03:35:25.887Z,145.40
2022-12-25T03:38:42.453Z,148.00
2022-12-25T03:41:46.523Z,131.30
2022-12-25T03:45:18.244Z,141.90
2022-12-25T03:48:07.717Z,134.80
2022-12-25T03:51:09.598Z,144.10
2022-12-25T03:54:08.643Z,143.80
2022-12-25T03:56:56.665Z,143.70
2022-12-25T03:59:44.098Z,149.80
2022-12-25T04:02:30.932Z,148.50
2022-12-25T04:05:18.166Z,142.50
2022-12-25T04:08:05.033Z,148.10
2022-12-25T04:10:52.037Z,152.00
2022-12-25T04:13:39.026Z,152.10
2022-12-25T04:16:26.805Z,155.30
2022-12-25T04:19:14.067Z,153.10
2022-12-25T04:22:00.947Z,146.90
2022-12-25T04:24:47.728Z,146.20
2022-12-25T04:27:34.506Z,148.40
2022-12-25T04:30:21.397Z,142.80
2022-12-25T04:33:08.484Z,137.80
2022-12-25T04:35:55.210Z,135.30
2022-12-25T04:38:24.745Z,132.80
2022-12-25T04:40:53.486Z,134.10
2022-12-25T04:43:25.427Z,124.30
2022-12-25T04:45:59.509Z,126.20
2022-12-25T04:48:30.684Z,123.30
2022-12-25T04:51:16.788Z,115.50
2022-12-25T04:53:45.991Z,113.60
2022-12-25T04:56:15.195Z,110.50
2022-12-25T04:58:44.912Z,100.90
2022-12-25T05:01:14.254Z,109.50
2022-12-25T05:03:43.238Z,109.20
2022-12-25T05:06:13.017Z,111.20
2022-12-25T05:08:41.643Z,104.90
2022-12-25T05:11:13.641Z,92.00
2022-12-25T05:13:42.701Z,72.70
2022-12-25T05:16:18.776Z,53.10
2022-12-25T05:18:52.184Z,48.20
2022-12-25T05:21:20.806Z,41.80
2022-12-25T05:23:53.337Z,39.20
2022-12-25T05:26:25.638Z,40.60
2022-12-25T05:28:55.331Z,41.00
2022-12-25T05:31:23.905Z,38.90
2022-12-25T05:33:53.448Z,42.00
2022-12-25T05:36:21.999Z,40.40
2022-12-25T05:38:51.629Z,37.30
2022-12-25T05:41:20.312Z,39.90
2022-12-25T05:43:48.812Z,35.50
2022-12-25T05:46:18.087Z,36.80
2022-12-25T05:48:46.913Z,39.10
2022-12-25T05:51:15.669Z,39.30
2022-12-25T05:53:44.313Z,40.20
2022-12-25T05:56:12.986Z,38.10
2022-12-25T05:58:41.630Z,38.00
2022-12-25T06:01:13.966Z,40.10
2022-12-25T06:03:42.611Z,37.10
2022-12-25T06:06:12.170Z,37.50
2022-12-25T06:08:41.471Z,36.70
2022-12-25T06:11:11.833Z,36.00
2022-12-25T06:13:40.879Z,36.20
2022-12-25T06:16:12.666Z,40.00
2022-12-25T06:18:46.052Z,39.70
2022-12-25T06:21:16.072Z,38.80
2022-12-25T06:23:45.463Z,37.30
2022-12-25T06:26:20.379Z,39.30
2022-12-25T06:28:50.675Z,37.40
2022-12-25T06:31:23.372Z,39.40
2022-12-25T06:33:52.150Z,36.90
2022-12-25T06:36:24.385Z,38.20
2022-12-25T06:38:53.984Z,37.50
2022-12-25T06:41:28.073Z,36.60
2022-12-25T06:44:01.514Z,36.40
2022-12-25T06:46:31.199Z,37.30
2022-12-25T06:49:00.041Z,36.50
2022-12-25T06:51:31.520Z,36.50
2022-12-25T06:54:04.068Z,36.80
2022-12-25T06:56:34.312Z,38.80
2022-12-25T06:59:07.098Z,37.30
2022-12-25T07:01:40.649Z,37.30
2022-12-25T07:04:20.018Z,35.30
2022-12-25T07:06:48.743Z,36.70
2022-12-25T07:09:17.171Z,36.80
2022-12-25T07:11:45.889Z,36.80
2022-12-25T07:14:24.310Z,34.90
2022-12-25T07:16:53.312Z,34.50
2022-12-25T07:19:24.837Z,34.70
2022-12-25T07:21:57.747Z,35.60
2022-12-25T07:24:26.281Z,37.50
2022-12-25T07:26:54.667Z,38.30
2022-12-25T07:29:23.059Z,38.80
2022-12-25T07:31:51.604Z,37.70
2022-12-25T07:34:20.619Z,37.90
2022-12-25T07:36:49.817Z,38.40
2022-12-25T07:39:19.087Z,38.60
2022-12-25T07:41:48.112Z,36.90
2022-12-25T07:44:16.736Z,38.50
2022-12-25T07:46:45.928Z,36.60
2022-12-25T07:49:14.850Z,35.50
2022-12-25T07:51:43.361Z,34.40
2022-12-25T07:54:12.025Z,32.60
2022-12-25T07:56:40.657Z,35.00
2022-12-25T07:59:09.187Z,40.30
2022-12-25T08:01:37.859Z,38.90
2022-12-25T08:04:08.137Z,36.60
2022-12-25T08:06:38.261Z,38.40
2022-12-25T08:09:10.961Z,32.80
2022-12-25T08:11:40.569Z,35.10
2022-12-25T08:14:09.693Z,33.20
2022-12-25T08:16:42.446Z,34.20
2022-12-25T08:19:11.609Z,35.10
2022-12-25T08:21:40.944Z,30.20
2022-12-25T08:24:09.755Z,32.60
2022-12-25T08:26:38.283Z,29.30
2022-12-25T08:29:06.991Z,29.60
2022-12-25T08:31:39.434Z,28.20
2022-12-25T08:34:12.052Z,30.70
2022-12-25T08:36:42.174Z,26.70
2022-12-25T08:39:11.003Z,27.40
2022-12-25T08:41:40.825Z,27.80
2022-12-25T08:44:13.027Z,26.70
2022-12-25T08:46:43.015Z,27.10
2022-12-25T08:49:11.988Z,28.40
2022-12-25T08:51:45.011Z,23.00
2022-12-25T08:54:14.061Z,26.20
2022-12-25T08:56:42.981Z,23.90
2022-12-25T08:59:12.307Z,24.60
2022-12-25T09:01:42.229Z,27.10
2022-12-25T09:04:10.838Z,27.40
2022-12-25T09:06:39.400Z,25.00
2022-12-25T09:09:08.016Z,26.20
2022-12-25T09:11:37.165Z,25.70
2022-12-25T09:14:05.979Z,26.70
2022-12-25T09:16:34.655Z,27.20
2022-12-25T09:19:03.171Z,26.80
2022-12-25T09:21:32.141Z,28.60
2022-12-25T09:24:01.269Z,27.00
2022-12-25T09:26:54.920Z,26.00
2022-12-25T09:29:23.546Z,26.60
2022-12-25T09:31:52.225Z,25.30
2022-12-25T09:34:20.923Z,26.80
2022-12-25T09:36:49.582Z,26.50
2022-12-25T09:39:18.400Z,24.90
2022-12-25T09:42:18.055Z,28.50
2022-12-25T09:45:10.218Z,26.50
2022-12-25T09:47:42.511Z,26.20
2022-12-25T09:50:23.671Z,32.30
2022-12-25T09:53:04.163Z,26.60
2022-12-25T09:55:39.024Z,21.70
2022-12-25T09:58:13.779Z,21.90
2022-12-25T10:00:52.322Z,25.00
2022-12-25T10:03:53.053Z,24.20
2022-12-25T10:06:32.171Z,24.30
2022-12-25T10:09:17.724Z,27.50
2022-12-25T10:11:49.650Z,28.40
2022-12-25T10:14:36.981Z,27.10
2022-12-25T10:17:20.946Z,23.90
2022-12-25T10:20:14.475Z,26.30
2022-12-25T10:22:49.053Z,28.10
2022-12-25T10:25:23.140Z,27.10
2022-12-25T10:28:01.360Z,32.30
2022-12-25T10:30:31.795Z,34.50
2022-12-25T10:33:00.601Z,35.00
2022-12-25T10:35:30.110Z,30.30
2022-12-25T10:38:10.896Z,33.90
2022-12-25T10:41:06.688Z,35.50
2022-12-25T10:43:47.849Z,33.40
2022-12-25T10:46:17.124Z,34.70
2022-12-25T10:48:52.435Z,33.10
2022-12-25T10:51:39.165Z,33.00
2022-12-25T10:54:27.345Z,35.80
2022-12-25T10:57:02.075Z,33.30
2022-12-25T10:59:42.700Z,36.30
2022-12-25T11:02:31.414Z,43.50
2022-12-25T11:05:10.060Z,37.20
2022-12-25T11:07:54.563Z,38.60
2022-12-25T11:10:35.721Z,36.60
2022-12-25T11:13:16.490Z,34.40
2022-12-25T11:15:49.026Z,34.60
2022-12-25T11:18:20.100Z,32.10
2022-12-25T11:21:00.992Z,35.50
2022-12-25T11:23:32.353Z,33.40
2022-12-25T11:26:08.959Z,32.60
2022-12-25T11:28:41.317Z,30.80
2022-12-25T11:31:40.382Z,28.70
2022-12-25T11:34:31.469Z,29.60
2022-12-25T11:37:01.822Z,29.10
2022-12-25T11:39:36.360Z,26.10
2022-12-25T11:42:14.008Z,26.00
2022-12-25T11:45:03.788Z,27.60
2022-12-25T11:47:40.705Z,30.00
2022-12-25T11:50:37.043Z,29.40
2022-12-25T11:53:14.007Z,27.90
2022-12-25T11:55:55.040Z,27.90
2022-12-25T11:58:36.650Z,29.00
2022-12-25T12:01:34.056Z,30.00
2022-12-25T12:04:08.963Z,25.60
2022-12-25T12:07:08.866Z,27.80
2022-12-25T12:10:06.034Z,28.40
2022-12-25T12:12:54.205Z,28.30
2022-12-25T12:15:31.493Z,26.00
2022-12-25T12:18:28.770Z,26.20
2022-12-25T12:21:03.090Z,24.60
2022-12-25T12:23:47.155Z,26.30
2022-12-25T12:26:25.890Z,24.40
2022-12-25T12:29:00.010Z,25.00
2022-12-25T12:31:44.648Z,21.70
2022-12-25T12:34:43.017Z,24.90
2022-12-25T12:37:31.499Z,22.00
2022-12-25T12:40:00.429Z,25.40
2022-12-25T12:42:33.715Z,24.40
2022-12-25T12:45:17.091Z,25.10
2022-12-25T12:47:49.574Z,23.10
2022-12-25T12:50:37.055Z,22.30
2022-12-25T12:53:33.626Z,22.20
2022-12-25T12:56:14.301Z,21.50
2022-12-25T12:58:51.045Z,23.60
2022-12-25T13:01:27.923Z,21.50
2022-12-25T13:04:25.133Z,22.90
2022-12-25T13:07:11.424Z,22.60
2022-12-25T13:09:53.364Z,18.70
2022-12-25T13:12:22.869Z,21.10
2022-12-25T13:14:51.445Z,18.50
2022-12-25T13:17:25.690Z,19.30
2022-12-25T13:20:00.333Z,17.80
2022-12-25T13:22:36.893Z,21.80
2022-12-25T13:25:10.210Z,15.30
2022-12-25T13:27:38.941Z,18.10
2022-12-25T13:30:20.278Z,20.10
2022-12-25T13:32:49.554Z,18.10
2022-12-25T13:35:19.405Z,18.10
2022-12-25T13:37:48.115Z,17.90
2022-12-25T13:40:27.881Z,19.70
2022-12-25T13:43:00.476Z,17.40
2022-12-25T13:45:31.747Z,15.40
2022-12-25T13:48:16.477Z,18.10
2022-12-25T13:50:48.698Z,19.70
2022-12-25T13:53:18.213Z,15.50
2022-12-25T13:55:54.494Z,16.90
2022-12-25T13:58:35.102Z,16.80
2022-12-25T14:01:04.008Z,17.20
2022-12-25T14:03:41.096Z,17.30
2022-12-25T14:06:30.385Z,17.90
2022-12-25T14:08:59.787Z,19.10
2022-12-25T14:11:30.159Z,18.30
2022-12-25T14:14:24.889Z,16.40
2022-12-25T14:16:57.540Z,20.60
2022-12-25T14:19:32.259Z,19.80
2022-12-25T14:22:21.533Z,20.30
2022-12-25T14:24:50.406Z,16.80
2022-12-25T14:27:30.708Z,18.80
2022-12-25T14:30:01.156Z,16.30
2022-12-25T14:32:34.375Z,17.90
2022-12-25T14:35:06.362Z,17.30
2022-12-25T14:37:40.445Z,19.40
2022-12-25T14:40:31.190Z,16.90
2022-12-25T14:43:06.265Z,17.20
2022-12-25T14:45:40.712Z,18.20
2022-12-25T14:48:25.219Z,17.20
2022-12-25T14:51:09.444Z,17.10
2022-12-25T14:53:46.962Z,17.40
2022-12-25T14:56:26.083Z,17.10
2022-12-25T14:58:59.836Z,14.90
2022-12-25T15:01:32.845Z,18.50
2022-12-25T15:04:10.551Z,17.00
2022-12-25T15:06:41.783Z,19.40
2022-12-25T15:11:51.034Z,19.80
2022-12-25T15:14:19.705Z,18.00
2022-12-25T15:16:58.729Z,16.10
2022-12-25T15:19:36.961Z,18.70
2022-12-25T15:22:07.020Z,18.80
2022-12-25T15:24:35.636Z,18.20
2022-12-25T15:27:05.570Z,18.10
2022-12-25T15:32:24.461Z,20.50
2022-12-25T15:34:53.957Z,19.40
2022-12-25T15:37:22.599Z,18.90
2022-12-25T15:39:51.124Z,18.40
2022-12-25T15:42:23.661Z,16.30
2022-12-25T15:44:52.350Z,19.00
2022-12-25T15:47:21.271Z,17.40
2022-12-25T15:49:49.808Z,18.30
2022-12-25T15:52:18.553Z,19.80
2022-12-25T15:54:47.110Z,20.40
2022-12-25T15:57:22.332Z,20.20
2022-12-25T15:59:50.975Z,21.90
2022-12-25T16:02:21.453Z,19.70
2022-12-25T16:04:51.337Z,20.50
2022-12-25T16:07:25.173Z,19.60
2022-12-25T16:09:53.739Z,19.00
2022-12-25T16:12:22.350Z,18.50
2022-12-25T16:14:51.156Z,18.60
2022-12-25T16:17:19.902Z,17.50
2022-12-25T16:19:48.735Z,19.70
2022-12-25T16:22:26.018Z,16.20
2022-12-25T16:24:55.247Z,16.80
2022-12-25T16:27:23.975Z,17.10
2022-12-25T16:29:52.598Z,17.90
2022-12-25T16:32:21.190Z,18.20
2022-12-25T16:34:49.759Z,18.00
2022-12-25T16:37:18.594Z,18.70
2022-12-25T16:39:47.171Z,18.40
2022-12-25T16:42:16.315Z,19.20
2022-12-25T16:44:45.235Z,18.70
2022-12-25T16:47:14.222Z,18.80
2022-12-25T16:49:43.010Z,19.60
2022-12-25T16:52:11.855Z,20.40
2022-12-25T16:54:40.595Z,19.80
2022-12-25T16:57:09.266Z,20.90
2022-12-25T16:59:37.882Z,21.50
2022-12-25T17:02:06.973Z,21.60
2022-12-25T17:04:36.244Z,21.00
2022-12-25T17:07:04.871Z,21.10
2022-12-25T17:09:35.429Z,20.30
2022-12-25T17:12:09.124Z,18.40
2022-12-25T17:14:37.856Z,21.10
2022-12-25T17:17:06.475Z,22.10
2022-12-25T17:19:35.328Z,19.90
2022-12-25T17:22:04.022Z,22.10
2022-12-25T17:24:35.285Z,20.50
2022-12-25T17:27:04.067Z,21.30
2022-12-25T17:29:32.650Z,22.00
2022-12-25T17:32:01.301Z,22.90
2022-12-25T17:34:29.980Z,21.70
2022-12-25T17:36:58.795Z,20.10
2022-12-25T17:39:27.952Z,21.00
2022-12-25T17:41:56.631Z,19.10
2022-12-25T17:44:25.992Z,21.80
2022-12-25T17:46:54.741Z,19.10
2022-12-25T17:49:23.598Z,16.90
2022-12-25T17:51:54.024Z,16.00
2022-12-25T17:54:22.644Z,16.70
2022-12-25T17:56:51.685Z,15.80
2022-12-25T17:59:29.180Z,17.50
2022-12-25T18:01:58.212Z,15.30
2022-12-25T18:04:27.015Z,20.40
2022-12-25T18:06:55.797Z,14.60
2022-12-25T18:09:24.938Z,14.60
2022-12-25T18:11:53.685Z,16.00
2022-12-25T18:14:22.635Z,16.60
2022-12-25T18:16:53.000Z,14.00
2022-12-25T18:19:21.937Z,14.40
2022-12-25T18:21:51.300Z,13.40
2022-12-25T18:24:19.902Z,15.10
2022-12-25T18:26:51.575Z,14.10
2022-12-25T18:29:20.267Z,14.10
2022-12-25T18:31:49.053Z,13.70
2022-12-25T18:34:18.448Z,13.70
2022-12-25T18:36:47.161Z,12.30
2022-12-25T18:39:15.933Z,14.30
2022-12-25T18:42:34.842Z,13.00
2022-12-25T18:45:03.629Z,13.90
2022-12-25T18:47:33.571Z,14.40
2022-12-25T18:50:02.439Z,13.30
2022-12-25T18:52:49.405Z,12.10
2022-12-25T18:55:20.078Z,14.90
2022-12-25T18:57:50.255Z,12.80
2022-12-25T19:00:19.788Z,14.00
2022-12-25T19:02:48.856Z,12.80
2022-12-25T19:05:17.780Z,12.50
2022-12-25T19:07:47.645Z,11.00
2022-12-25T19:10:16.269Z,10.90
2022-12-25T19:12:45.057Z,10.50
2022-12-25T19:15:14.164Z,11.20
2022-12-25T19:17:43.439Z,9.00
2022-12-25T19:20:12.860Z,9.60
2022-12-25T19:22:41.558Z,9.30
2022-12-25T19:25:10.521Z,11.80
2022-12-25T19:27:39.117Z,10.20
2022-12-25T19:30:09.877Z,9.70
2022-12-25T19:32:39.532Z,13.10
2022-12-25T19:35:08.513Z,11.40
2022-12-25T19:37:37.210Z,10.00
2022-12-25T19:40:07.269Z,9.80
2022-12-25T19:42:36.228Z,10.30
2022-12-25T19:45:06.605Z,10.20
2022-12-25T19:47:35.349Z,10.20
2022-12-25T19:50:04.254Z,10.20
2022-12-25T19:52:36.118Z,10.20
2022-12-25T19:55:05.261Z,8.70
2022-12-25T19:57:33.930Z,9.20
2022-12-25T20:00:03.316Z,9.40
2022-12-25T20:02:42.262Z,10.90
2022-12-25T20:05:11.010Z,9.50
2022-12-25T20:07:39.640Z,10.30
2022-12-25T20:10:08.431Z,9.30
2022-12-25T20:12:37.062Z,9.80
2022-12-25T20:15:06.365Z,9.60
2022-12-25T20:17:35.147Z,9.70
2022-12-25T20:20:04.603Z,9.80
2022-12-25T20:22:33.502Z,9.90
2022-12-25T20:25:03.713Z,9.80
2022-12-25T20:27:32.467Z,10.20
2022-12-25T20:30:01.285Z,10.40
2022-12-25T20:32:30.196Z,10.10
2022-12-25T20:34:58.858Z,9.90
2022-12-25T20:37:27.539Z,10.00
2022-12-25T20:39:56.437Z,9.60
2022-12-25T20:42:24.989Z,10.40
2022-12-25T20:44:53.602Z,10.20
2022-12-25T20:47:22.042Z,10.40
2022-12-25T20:49:50.625Z,10.20
2022-12-25T20:52:19.237Z,9.90
2022-12-25T20:54:47.816Z,9.30
2022-12-25T20:57:16.312Z,10.10
2022-12-25T20:59:44.952Z,9.20
2022-12-25T21:02:35.568Z,9.60
2022-12-25T21:05:03.114Z,10.10
2022-12-25T21:07:31.698Z,9.40
2022-12-25T21:10:00.366Z,8.70
2022-12-25T21:12:29.310Z,9.70
2022-12-25T21:14:58.030Z,10.80
2022-12-25T21:17:27.126Z,10.40
2022-12-25T21:19:55.731Z,10.70
2022-12-25T21:22:24.318Z,10.10
2022-12-25T21:24:53.628Z,10.90
2022-12-25T21:27:22.215Z,9.70
2022-12-25T21:29:50.597Z,10.60
2022-12-25T21:32:37.355Z,9.60
2022-12-25T21:35:06.220Z,9.50
2022-12-25T21:37:34.706Z,9.10
2022-12-25T21:40:03.669Z,9.40
2022-12-25T21:42:32.257Z,9.10
2022-12-25T21:45:01.469Z,9.80
2022-12-25T21:48:01.606Z,9.80
2022-12-25T21:50:39.509Z,9.90
2022-12-25T21:53:08.351Z,9.70
2022-12-25T21:55:37.039Z,10.20
2022-12-25T21:58:05.848Z,10.50
2022-12-25T22:00:36.821Z,11.30
2022-12-25T22:03:05.519Z,10.20
2022-12-25T22:05:54.941Z,10.30
2022-12-25T22:08:23.409Z,10.80
2022-12-25T22:10:51.861Z,9.10
2022-12-25T22:13:38.838Z,9.70
2022-12-25T22:16:26.482Z,9.30
2022-12-25T22:19:15.192Z,9.80
2022-12-25T22:21:43.755Z,10.10
2022-12-25T22:24:12.357Z,9.50
2022-12-25T22:26:40.983Z,10.20
2022-12-25T22:29:09.541Z,10.20
2022-12-25T22:31:42.724Z,9.80
2022-12-25T22:34:16.718Z,9.70
2022-12-25T22:36:45.301Z,10.40
2022-12-25T22:39:13.918Z,10.20
2022-12-25T22:41:42.580Z,11.60
2022-12-25T22:44:18.743Z,9.60
2022-12-25T22:46:50.638Z,9.90
2022-12-25T22:49:19.302Z,10.30
2022-12-25T22:51:49.670Z,10.30
2022-12-25T22:54:20.022Z,11.00
2022-12-25T22:56:52.398Z,10.60
2022-12-25T22:59:23.043Z,11.50
2022-12-25T23:01:51.870Z,10.20
2022-12-25T23:04:20.963Z,10.90
2022-12-25T23:06:50.058Z,10.60
2022-12-25T23:09:24.863Z,11.50
2022-12-25T23:11:56.477Z,10.60
2022-12-25T23:17:31.860Z,10.60
2022-12-25T23:20:19.891Z,10.10
2022-12-25T23:23:06.808Z,10.00
2022-12-25T23:25:54.207Z,9.50
2022-12-25T23:28:41.138Z,9.10
2022-12-25T23:31:09.914Z,9.80
2022-12-25T23:33:38.443Z,10.40
2022-12-25T23:36:07.249Z,9.70
2022-12-25T23:38:35.833Z,9.50
2022-12-25T23:41:04.456Z,9.70
2022-12-25T23:43:32.950Z,9.60
2022-12-25T23:46:01.491Z,10.50
2022-12-25T23:48:29.919Z,11.40
2022-12-25T23:51:06.359Z,10.90
2022-12-25T23:53:35.544Z,10.50
2022-12-25T23:56:04.435Z,11.30
2022-12-25T23:58:34.380Z,12.00
